Akron, Colorado
Current Conditions -  °F | °C
As of 7:53 PM on Friday 21 Nov 2014 (Local Time) from KAKO Reporting Station
Clear Clear  
Wind Chill: 28°   Ceiling: Unl
Heat Index: 36°   Visibility: 10mi
Dew Point: 19°   Wind: 10mph
Humidity: 50%   Direction: 220°SW
Pressure: 29.93"   Gusts: NA
Location:  40.16°N, 103.21°W
Report Text: KAKO 220253Z AUTO 22009KT 10SM CLR 02/M07 A2993 RMK AO2 SLP151 T00221072 51005
Loading
Personal Weather Stations






























Interactive Weather Map New forecast layout! Learn more

10-Day Weather Forecast

Advertisements
Track Severe Weather on mobile